sensor_id;sensor_type;location;lat;lon;timestamp;P1;durP1;ratioP1;P2;durP2;ratioP2
19163;SDS011;9714;51.208;4.242;2023-03-31T00:02:23;22.67;;;3.23;;
19163;SDS011;9714;51.208;4.242;2023-03-31T00:04:50;18.03;;;3.30;;
19163;SDS011;9714;51.208;4.242;2023-03-31T00:07:17;18.97;;;3.43;;
19163;SDS011;9714;51.208;4.242;2023-03-31T00:09:46;17.03;;;3.33;;
19163;SDS011;9714;51.208;4.242;2023-03-31T00:12:14;21.23;;;3.13;;
19163;SDS011;9714;51.208;4.242;2023-03-31T00:14:42;26.97;;;3.73;;
19163;SDS011;9714;51.208;4.242;2023-03-31T00:17:10;19.27;;;3.90;;
19163;SDS011;9714;51.208;4.242;2023-03-31T00:19:38;14.23;;;2.73;;
19163;SDS011;9714;51.208;4.242;2023-03-31T00:22:05;17.77;;;3.10;;
19163;SDS011;9714;51.208;4.242;2023-03-31T00:24:33;18.10;;;4.17;;
19163;SDS011;9714;51.208;4.242;2023-03-31T00:27:01;21.30;;;3.17;;
19163;SDS011;9714;51.208;4.242;2023-03-31T00:29:30;21.07;;;3.70;;
19163;SDS011;9714;51.208;4.242;2023-03-31T00:31:57;30.57;;;4.10;;
19163;SDS011;9714;51.208;4.242;2023-03-31T00:34:26;27.00;;;4.07;;
19163;SDS011;9714;51.208;4.242;2023-03-31T00:36:54;25.53;;;3.20;;
19163;SDS011;9714;51.208;4.242;2023-03-31T00:39:26;24.23;;;3.50;;
19163;SDS011;9714;51.208;4.242;2023-03-31T00:41:56;28.40;;;4.13;;
19163;SDS011;9714;51.208;4.242;2023-03-31T00:44:23;30.23;;;3.73;;
19163;SDS011;9714;51.208;4.242;2023-03-31T00:46:51;23.33;;;3.10;;
19163;SDS011;9714;51.208;4.242;2023-03-31T00:49:22;28.20;;;3.77;;
19163;SDS011;9714;51.208;4.242;2023-03-31T00:51:55;21.90;;;3.77;;
19163;SDS011;9714;51.208;4.242;2023-03-31T00:54:27;24.70;;;4.50;;
19163;SDS011;9714;51.208;4.242;2023-03-31T00:56:57;24.40;;;3.70;;
19163;SDS011;9714;51.208;4.242;2023-03-31T00:59:27;30.13;;;3.93;;
19163;SDS011;9714;51.208;4.242;2023-03-31T01:01:57;21.60;;;4.00;;
19163;SDS011;9714;51.208;4.242;2023-03-31T01:04:29;25.37;;;3.87;;
19163;SDS011;9714;51.208;4.242;2023-03-31T01:06:59;24.87;;;3.73;;
19163;SDS011;9714;51.208;4.242;2023-03-31T01:09:33;30.23;;;4.43;;
19163;SDS011;9714;51.208;4.242;2023-03-31T01:12:04;29.07;;;5.13;;
19163;SDS011;9714;51.208;4.242;2023-03-31T01:14:33;26.97;;;4.17;;
19163;SDS011;9714;51.208;4.242;2023-03-31T01:17:01;18.03;;;3.47;;
19163;SDS011;9714;51.208;4.242;2023-03-31T01:19:34;19.63;;;3.97;;
19163;SDS011;9714;51.208;4.242;2023-03-31T01:28:20;25.13;;;3.43;;
19163;SDS011;9714;51.208;4.242;2023-03-31T01:31:08;29.13;;;4.30;;
19163;SDS011;9714;51.208;4.242;2023-03-31T01:37:37;15.47;;;3.40;;
19163;SDS011;9714;51.208;4.242;2023-03-31T01:40:45;22.63;;;3.70;;
19163;SDS011;9714;51.208;4.242;2023-03-31T01:43:23;24.07;;;3.33;;
19163;SDS011;9714;51.208;4.242;2023-03-31T01:45:56;21.83;;;3.90;;
19163;SDS011;9714;51.208;4.242;2023-03-31T01:48:31;21.17;;;3.23;;
19163;SDS011;9714;51.208;4.242;2023-03-31T01:51:05;19.43;;;3.27;;
19163;SDS011;9714;51.208;4.242;2023-03-31T01:53:36;16.30;;;3.40;;
19163;SDS011;9714;51.208;4.242;2023-03-31T01:56:12;14.93;;;2.97;;
19163;SDS011;9714;51.208;4.242;2023-03-31T01:58:47;22.30;;;3.13;;
19163;SDS011;9714;51.208;4.242;2023-03-31T02:01:19;22.80;;;3.37;;
19163;SDS011;9714;51.208;4.242;2023-03-31T02:03:52;17.47;;;3.37;;
19163;SDS011;9714;51.208;4.242;2023-03-31T02:06:24;23.97;;;3.50;;
19163;SDS011;9714;51.208;4.242;2023-03-31T02:08:56;19.47;;;2.80;;
19163;SDS011;9714;51.208;4.242;2023-03-31T02:11:29;19.03;;;3.10;;
19163;SDS011;9714;51.208;4.242;2023-03-31T02:13:58;16.47;;;3.70;;
19163;SDS011;9714;51.208;4.242;2023-03-31T02:16:30;18.90;;;2.57;;
19163;SDS011;9714;51.208;4.242;2023-03-31T02:19:02;18.60;;;3.07;;
19163;SDS011;9714;51.208;4.242;2023-03-31T02:21:31;16.13;;;2.73;;
19163;SDS011;9714;51.208;4.242;2023-03-31T02:23:59;19.50;;;3.70;;
19163;SDS011;9714;51.208;4.242;2023-03-31T02:26:32;15.20;;;3.10;;
19163;SDS011;9714;51.208;4.242;2023-03-31T02:29:05;16.87;;;3.47;;
19163;SDS011;9714;51.208;4.242;2023-03-31T02:31:34;19.90;;;3.20;;
19163;SDS011;9714;51.208;4.242;2023-03-31T02:34:08;16.00;;;3.30;;
19163;SDS011;9714;51.208;4.242;2023-03-31T02:36:35;13.47;;;2.83;;
19163;SDS011;9714;51.208;4.242;2023-03-31T02:39:03;18.83;;;3.47;;
19163;SDS011;9714;51.208;4.242;2023-03-31T02:41:35;22.20;;;3.40;;
19163;SDS011;9714;51.208;4.242;2023-03-31T02:44:02;20.10;;;3.77;;
19163;SDS011;9714;51.208;4.242;2023-03-31T02:46:29;17.83;;;3.63;;
19163;SDS011;9714;51.208;4.242;2023-03-31T02:48:58;17.67;;;3.63;;
19163;SDS011;9714;51.208;4.242;2023-03-31T02:54:45;14.77;;;3.10;;
19163;SDS011;9714;51.208;4.242;2023-03-31T02:57:40;21.53;;;3.43;;
19163;SDS011;9714;51.208;4.242;2023-03-31T03:00:39;19.17;;;3.97;;
19163;SDS011;9714;51.208;4.242;2023-03-31T03:03:19;17.77;;;3.53;;
19163;SDS011;9714;51.208;4.242;2023-03-31T03:05:57;17.33;;;2.80;;
19163;SDS011;9714;51.208;4.242;2023-03-31T03:08:32;11.77;;;2.43;;
19163;SDS011;9714;51.208;4.242;2023-03-31T03:11:10;15.23;;;3.03;;
19163;SDS011;9714;51.208;4.242;2023-03-31T03:13:46;12.30;;;2.73;;
19163;SDS011;9714;51.208;4.242;2023-03-31T03:16:17;15.93;;;3.73;;
19163;SDS011;9714;51.208;4.242;2023-03-31T03:18:56;14.63;;;3.43;;
19163;SDS011;9714;51.208;4.242;2023-03-31T03:21:24;19.40;;;3.07;;
19163;SDS011;9714;51.208;4.242;2023-03-31T03:23:51;17.93;;;3.40;;
19163;SDS011;9714;51.208;4.242;2023-03-31T03:26:19;14.63;;;3.00;;
19163;SDS011;9714;51.208;4.242;2023-03-31T03:28:49;14.63;;;3.63;;
19163;SDS011;9714;51.208;4.242;2023-03-31T03:31:16;19.03;;;3.43;;
19163;SDS011;9714;51.208;4.242;2023-03-31T03:33:43;20.17;;;4.43;;
19163;SDS011;9714;51.208;4.242;2023-03-31T03:36:10;17.63;;;3.70;;
19163;SDS011;9714;51.208;4.242;2023-03-31T03:38:37;13.67;;;3.33;;
19163;SDS011;9714;51.208;4.242;2023-03-31T03:41:05;14.10;;;3.50;;
19163;SDS011;9714;51.208;4.242;2023-03-31T03:43:32;15.40;;;3.43;;
19163;SDS011;9714;51.208;4.242;2023-03-31T03:46:00;14.03;;;3.40;;
19163;SDS011;9714;51.208;4.242;2023-03-31T03:48:27;12.23;;;3.17;;
19163;SDS011;9714;51.208;4.242;2023-03-31T03:50:54;13.10;;;3.33;;
19163;SDS011;9714;51.208;4.242;2023-03-31T03:53:24;17.23;;;3.80;;
19163;SDS011;9714;51.208;4.242;2023-03-31T03:55:51;9.90;;;2.63;;
19163;SDS011;9714;51.208;4.242;2023-03-31T03:58:18;13.53;;;3.00;;
19163;SDS011;9714;51.208;4.242;2023-03-31T04:00:45;12.87;;;3.33;;
19163;SDS011;9714;51.208;4.242;2023-03-31T04:03:13;12.70;;;3.00;;
19163;SDS011;9714;51.208;4.242;2023-03-31T04:05:40;11.50;;;2.20;;
19163;SDS011;9714;51.208;4.242;2023-03-31T04:08:07;7.73;;;1.93;;
19163;SDS011;9714;51.208;4.242;2023-03-31T04:10:34;11.30;;;2.10;;
19163;SDS011;9714;51.208;4.242;2023-03-31T04:13:01;8.53;;;1.63;;
19163;SDS011;9714;51.208;4.242;2023-03-31T04:15:28;7.90;;;1.73;;
19163;SDS011;9714;51.208;4.242;2023-03-31T04:17:55;7.53;;;1.50;;
19163;SDS011;9714;51.208;4.242;2023-03-31T04:20:24;8.97;;;1.80;;
19163;SDS011;9714;51.208;4.242;2023-03-31T04:22:51;5.57;;;1.33;;
19163;SDS011;9714;51.208;4.242;2023-03-31T04:25:19;7.27;;;1.60;;
19163;SDS011;9714;51.208;4.242;2023-03-31T04:27:47;7.00;;;1.83;;
19163;SDS011;9714;51.208;4.242;2023-03-31T04:30:19;6.50;;;1.33;;
19163;SDS011;9714;51.208;4.242;2023-03-31T04:32:48;7.53;;;1.80;;
19163;SDS011;9714;51.208;4.242;2023-03-31T04:35:15;7.87;;;1.60;;
19163;SDS011;9714;51.208;4.242;2023-03-31T04:37:46;5.57;;;1.50;;
19163;SDS011;9714;51.208;4.242;2023-03-31T04:40:13;6.57;;;1.60;;
19163;SDS011;9714;51.208;4.242;2023-03-31T04:42:48;9.33;;;1.60;;
19163;SDS011;9714;51.208;4.242;2023-03-31T04:45:17;10.43;;;2.00;;
19163;SDS011;9714;51.208;4.242;2023-03-31T04:47:52;7.07;;;1.50;;
19163;SDS011;9714;51.208;4.242;2023-03-31T04:50:19;9.33;;;1.77;;
19163;SDS011;9714;51.208;4.242;2023-03-31T04:52:48;7.07;;;1.60;;
19163;SDS011;9714;51.208;4.242;2023-03-31T04:55:15;8.27;;;1.47;;
19163;SDS011;9714;51.208;4.242;2023-03-31T04:57:43;5.17;;;1.47;;
19163;SDS011;9714;51.208;4.242;2023-03-31T05:00:10;8.53;;;1.60;;
19163;SDS011;9714;51.208;4.242;2023-03-31T05:02:38;7.27;;;1.33;;
19163;SDS011;9714;51.208;4.242;2023-03-31T05:05:05;9.17;;;1.17;;
19163;SDS011;9714;51.208;4.242;2023-03-31T05:07:32;9.03;;;1.53;;
19163;SDS011;9714;51.208;4.242;2023-03-31T05:10:01;6.07;;;1.00;;
19163;SDS011;9714;51.208;4.242;2023-03-31T05:12:28;10.43;;;1.97;;
19163;SDS011;9714;51.208;4.242;2023-03-31T05:14:58;9.63;;;1.73;;
19163;SDS011;9714;51.208;4.242;2023-03-31T05:17:25;10.03;;;1.57;;
19163;SDS011;9714;51.208;4.242;2023-03-31T05:19:52;10.37;;;1.60;;
19163;SDS011;9714;51.208;4.242;2023-03-31T05:22:19;8.83;;;1.60;;
19163;SDS011;9714;51.208;4.242;2023-03-31T05:24:46;7.83;;;1.70;;
19163;SDS011;9714;51.208;4.242;2023-03-31T05:27:15;9.83;;;1.37;;
19163;SDS011;9714;51.208;4.242;2023-03-31T05:29:43;7.37;;;1.30;;
19163;SDS011;9714;51.208;4.242;2023-03-31T05:32:10;7.63;;;1.67;;
19163;SDS011;9714;51.208;4.242;2023-03-31T05:34:37;3.40;;;0.87;;
19163;SDS011;9714;51.208;4.242;2023-03-31T05:37:04;5.97;;;1.20;;
19163;SDS011;9714;51.208;4.242;2023-03-31T05:39:31;12.60;;;2.00;;
19163;SDS011;9714;51.208;4.242;2023-03-31T05:41:58;9.57;;;1.70;;
19163;SDS011;9714;51.208;4.242;2023-03-31T05:44:26;14.30;;;2.40;;
19163;SDS011;9714;51.208;4.242;2023-03-31T05:46:53;15.10;;;2.50;;
19163;SDS011;9714;51.208;4.242;2023-03-31T05:49:20;16.70;;;3.10;;
19163;SDS011;9714;51.208;4.242;2023-03-31T05:51:47;18.23;;;3.03;;
19163;SDS011;9714;51.208;4.242;2023-03-31T05:54:15;16.67;;;2.93;;
19163;SDS011;9714;51.208;4.242;2023-03-31T05:56:42;13.43;;;2.70;;
19163;SDS011;9714;51.208;4.242;2023-03-31T05:59:08;18.73;;;3.70;;
19163;SDS011;9714;51.208;4.242;2023-03-31T06:01:37;18.53;;;2.60;;
19163;SDS011;9714;51.208;4.242;2023-03-31T06:04:04;14.90;;;3.13;;
19163;SDS011;9714;51.208;4.242;2023-03-31T06:06:31;17.20;;;3.50;;
19163;SDS011;9714;51.208;4.242;2023-03-31T06:08:59;20.53;;;3.60;;
19163;SDS011;9714;51.208;4.242;2023-03-31T06:11:26;21.17;;;3.80;;
19163;SDS011;9714;51.208;4.242;2023-03-31T06:13:54;19.57;;;3.67;;
19163;SDS011;9714;51.208;4.242;2023-03-31T06:16:22;18.20;;;3.60;;
19163;SDS011;9714;51.208;4.242;2023-03-31T06:18:50;23.03;;;6.87;;
19163;SDS011;9714;51.208;4.242;2023-03-31T06:21:17;22.13;;;3.90;;
19163;SDS011;9714;51.208;4.242;2023-03-31T06:23:45;21.30;;;3.63;;
19163;SDS011;9714;51.208;4.242;2023-03-31T06:26:13;21.90;;;3.33;;
19163;SDS011;9714;51.208;4.242;2023-03-31T06:28:41;27.23;;;4.10;;
19163;SDS011;9714;51.208;4.242;2023-03-31T06:31:09;22.73;;;3.93;;
19163;SDS011;9714;51.208;4.242;2023-03-31T06:33:38;21.07;;;4.47;;
19163;SDS011;9714;51.208;4.242;2023-03-31T06:36:07;28.63;;;3.83;;
19163;SDS011;9714;51.208;4.242;2023-03-31T06:38:35;22.97;;;3.83;;
19163;SDS011;9714;51.208;4.242;2023-03-31T06:41:03;17.03;;;3.30;;
19163;SDS011;9714;51.208;4.242;2023-03-31T06:43:30;22.63;;;3.40;;
19163;SDS011;9714;51.208;4.242;2023-03-31T06:45:58;26.77;;;4.13;;
19163;SDS011;9714;51.208;4.242;2023-03-31T06:48:25;22.83;;;4.10;;
19163;SDS011;9714;51.208;4.242;2023-03-31T06:50:53;21.90;;;3.57;;
19163;SDS011;9714;51.208;4.242;2023-03-31T06:53:22;21.50;;;3.93;;
19163;SDS011;9714;51.208;4.242;2023-03-31T06:55:49;23.70;;;3.70;;
19163;SDS011;9714;51.208;4.242;2023-03-31T06:58:16;17.47;;;3.10;;
19163;SDS011;9714;51.208;4.242;2023-03-31T07:00:43;27.33;;;4.90;;
19163;SDS011;9714;51.208;4.242;2023-03-31T07:03:11;19.93;;;4.47;;
19163;SDS011;9714;51.208;4.242;2023-03-31T07:05:40;23.40;;;4.47;;
19163;SDS011;9714;51.208;4.242;2023-03-31T07:08:07;21.37;;;3.90;;
19163;SDS011;9714;51.208;4.242;2023-03-31T07:10:36;28.33;;;5.00;;
19163;SDS011;9714;51.208;4.242;2023-03-31T07:13:03;22.63;;;3.90;;
19163;SDS011;9714;51.208;4.242;2023-03-31T07:15:30;20.87;;;3.40;;
19163;SDS011;9714;51.208;4.242;2023-03-31T07:17:57;23.60;;;4.53;;
19163;SDS011;9714;51.208;4.242;2023-03-31T07:20:26;20.67;;;4.70;;
19163;SDS011;9714;51.208;4.242;2023-03-31T07:22:53;26.10;;;4.47;;
19163;SDS011;9714;51.208;4.242;2023-03-31T07:25:20;17.73;;;4.83;;
19163;SDS011;9714;51.208;4.242;2023-03-31T07:27:49;18.77;;;3.13;;
19163;SDS011;9714;51.208;4.242;2023-03-31T07:30:17;25.63;;;4.10;;
19163;SDS011;9714;51.208;4.242;2023-03-31T07:32:45;31.10;;;4.50;;
19163;SDS011;9714;51.208;4.242;2023-03-31T07:35:13;20.80;;;4.70;;
19163;SDS011;9714;51.208;4.242;2023-03-31T07:37:41;23.47;;;4.33;;
19163;SDS011;9714;51.208;4.242;2023-03-31T07:40:10;28.07;;;4.37;;
19163;SDS011;9714;51.208;4.242;2023-03-31T07:42:39;29.17;;;4.87;;
19163;SDS011;9714;51.208;4.242;2023-03-31T07:45:08;23.63;;;4.60;;
19163;SDS011;9714;51.208;4.242;2023-03-31T07:47:36;27.67;;;4.30;;
19163;SDS011;9714;51.208;4.242;2023-03-31T07:50:04;18.87;;;3.77;;
19163;SDS011;9714;51.208;4.242;2023-03-31T07:52:32;25.60;;;4.83;;
19163;SDS011;9714;51.208;4.242;2023-03-31T07:54:59;21.77;;;4.30;;
19163;SDS011;9714;51.208;4.242;2023-03-31T07:57:27;20.30;;;3.83;;
19163;SDS011;9714;51.208;4.242;2023-03-31T07:59:54;25.97;;;5.67;;
19163;SDS011;9714;51.208;4.242;2023-03-31T08:02:23;27.70;;;4.63;;
19163;SDS011;9714;51.208;4.242;2023-03-31T08:04:50;24.77;;;4.13;;
19163;SDS011;9714;51.208;4.242;2023-03-31T08:07:17;23.50;;;3.87;;
19163;SDS011;9714;51.208;4.242;2023-03-31T08:09:45;26.87;;;4.63;;
19163;SDS011;9714;51.208;4.242;2023-03-31T08:12:12;24.37;;;4.50;;
19163;SDS011;9714;51.208;4.242;2023-03-31T08:14:40;20.33;;;3.60;;
19163;SDS011;9714;51.208;4.242;2023-03-31T08:17:07;27.67;;;4.23;;
19163;SDS011;9714;51.208;4.242;2023-03-31T08:19:35;26.93;;;4.57;;
19163;SDS011;9714;51.208;4.242;2023-03-31T08:22:02;20.97;;;4.03;;
19163;SDS011;9714;51.208;4.242;2023-03-31T08:24:30;22.47;;;3.53;;
19163;SDS011;9714;51.208;4.242;2023-03-31T08:26:56;27.87;;;5.17;;
19163;SDS011;9714;51.208;4.242;2023-03-31T08:29:24;27.67;;;5.03;;
19163;SDS011;9714;51.208;4.242;2023-03-31T08:31:51;29.47;;;6.10;;
19163;SDS011;9714;51.208;4.242;2023-03-31T08:34:19;26.20;;;5.07;;
19163;SDS011;9714;51.208;4.242;2023-03-31T08:36:47;21.70;;;3.77;;
19163;SDS011;9714;51.208;4.242;2023-03-31T08:39:14;32.60;;;5.33;;
19163;SDS011;9714;51.208;4.242;2023-03-31T08:41:45;25.50;;;4.20;;
19163;SDS011;9714;51.208;4.242;2023-03-31T08:44:20;21.70;;;3.90;;
19163;SDS011;9714;51.208;4.242;2023-03-31T08:46:51;28.97;;;4.87;;
19163;SDS011;9714;51.208;4.242;2023-03-31T08:49:21;23.10;;;5.33;;
19163;SDS011;9714;51.208;4.242;2023-03-31T08:51:52;20.80;;;4.37;;
19163;SDS011;9714;51.208;4.242;2023-03-31T08:54:29;25.87;;;4.93;;
19163;SDS011;9714;51.208;4.242;2023-03-31T08:56:58;22.93;;;4.53;;
19163;SDS011;9714;51.208;4.242;2023-03-31T08:59:26;21.17;;;3.80;;
19163;SDS011;9714;51.208;4.242;2023-03-31T09:01:58;16.47;;;3.70;;
19163;SDS011;9714;51.208;4.242;2023-03-31T09:04:42;17.43;;;3.07;;
19163;SDS011;9714;51.208;4.242;2023-03-31T09:07:23;27.33;;;4.77;;
19163;SDS011;9714;51.208;4.242;2023-03-31T09:09:58;22.73;;;4.17;;
19163;SDS011;9714;51.208;4.242;2023-03-31T09:12:38;23.60;;;5.60;;
19163;SDS011;9714;51.208;4.242;2023-03-31T09:15:13;21.63;;;3.97;;
19163;SDS011;9714;51.208;4.242;2023-03-31T09:17:49;21.87;;;4.30;;
19163;SDS011;9714;51.208;4.242;2023-03-31T09:20:20;19.80;;;3.93;;
19163;SDS011;9714;51.208;4.242;2023-03-31T09:22:54;17.13;;;3.00;;
19163;SDS011;9714;51.208;4.242;2023-03-31T09:25:27;29.30;;;4.77;;
19163;SDS011;9714;51.208;4.242;2023-03-31T09:27:59;22.77;;;4.37;;
19163;SDS011;9714;51.208;4.242;2023-03-31T09:30:29;27.97;;;5.07;;
19163;SDS011;9714;51.208;4.242;2023-03-31T09:33:01;21.03;;;4.00;;
19163;SDS011;9714;51.208;4.242;2023-03-31T09:35:36;22.40;;;5.00;;
19163;SDS011;9714;51.208;4.242;2023-03-31T09:38:05;23.43;;;4.93;;
19163;SDS011;9714;51.208;4.242;2023-03-31T09:40:34;24.77;;;4.87;;
19163;SDS011;9714;51.208;4.242;2023-03-31T09:43:03;19.93;;;4.37;;
19163;SDS011;9714;51.208;4.242;2023-03-31T09:45:31;20.03;;;4.30;;
19163;SDS011;9714;51.208;4.242;2023-03-31T09:48:00;21.70;;;3.83;;
19163;SDS011;9714;51.208;4.242;2023-03-31T09:50:30;28.13;;;4.97;;
19163;SDS011;9714;51.208;4.242;2023-03-31T09:53:02;24.63;;;5.83;;
19163;SDS011;9714;51.208;4.242;2023-03-31T09:55:39;30.13;;;6.03;;
19163;SDS011;9714;51.208;4.242;2023-03-31T09:58:11;25.77;;;5.20;;
19163;SDS011;9714;51.208;4.242;2023-03-31T10:00:40;20.73;;;3.43;;
19163;SDS011;9714;51.208;4.242;2023-03-31T10:03:09;20.93;;;3.97;;
19163;SDS011;9714;51.208;4.242;2023-03-31T10:05:46;30.97;;;5.00;;
19163;SDS011;9714;51.208;4.242;2023-03-31T10:11:07;33.60;;;5.17;;
19163;SDS011;9714;51.208;4.242;2023-03-31T10:13:40;29.83;;;4.97;;
19163;SDS011;9714;51.208;4.242;2023-03-31T10:16:12;24.83;;;4.30;;
19163;SDS011;9714;51.208;4.242;2023-03-31T10:18:41;36.00;;;8.90;;
19163;SDS011;9714;51.208;4.242;2023-03-31T10:21:14;25.57;;;6.73;;
19163;SDS011;9714;51.208;4.242;2023-03-31T10:23:47;24.47;;;4.77;;
19163;SDS011;9714;51.208;4.242;2023-03-31T10:26:16;28.80;;;5.63;;
19163;SDS011;9714;51.208;4.242;2023-03-31T10:28:49;31.77;;;4.97;;
19163;SDS011;9714;51.208;4.242;2023-03-31T10:31:17;36.27;;;6.03;;
19163;SDS011;9714;51.208;4.242;2023-03-31T10:33:47;26.13;;;4.60;;
19163;SDS011;9714;51.208;4.242;2023-03-31T10:36:18;20.57;;;6.13;;
19163;SDS011;9714;51.208;4.242;2023-03-31T10:38:49;33.97;;;5.57;;
19163;SDS011;9714;51.208;4.242;2023-03-31T10:41:17;25.43;;;3.83;;
19163;SDS011;9714;51.208;4.242;2023-03-31T10:43:47;26.10;;;4.43;;
19163;SDS011;9714;51.208;4.242;2023-03-31T10:46:15;23.63;;;4.93;;
19163;SDS011;9714;51.208;4.242;2023-03-31T10:48:43;23.77;;;4.40;;
19163;SDS011;9714;51.208;4.242;2023-03-31T10:51:11;26.20;;;4.93;;
19163;SDS011;9714;51.208;4.242;2023-03-31T10:53:42;27.23;;;4.17;;
19163;SDS011;9714;51.208;4.242;2023-03-31T10:59:07;18.03;;;3.97;;
19163;SDS011;9714;51.208;4.242;2023-03-31T11:01:54;22.53;;;4.73;;
19163;SDS011;9714;51.208;4.242;2023-03-31T11:04:51;23.70;;;4.33;;
19163;SDS011;9714;51.208;4.242;2023-03-31T11:07:31;27.53;;;4.53;;
19163;SDS011;9714;51.208;4.242;2023-03-31T11:10:19;29.30;;;4.53;;
19163;SDS011;9714;51.208;4.242;2023-03-31T11:13:09;25.47;;;4.17;;
19163;SDS011;9714;51.208;4.242;2023-03-31T11:15:45;23.67;;;4.73;;
19163;SDS011;9714;51.208;4.242;2023-03-31T11:18:25;22.50;;;4.23;;
19163;SDS011;9714;51.208;4.242;2023-03-31T11:21:06;18.90;;;3.37;;
19163;SDS011;9714;51.208;4.242;2023-03-31T11:23:41;23.27;;;4.77;;
19163;SDS011;9714;51.208;4.242;2023-03-31T11:26:12;21.03;;;3.70;;
19163;SDS011;9714;51.208;4.242;2023-03-31T11:28:59;21.10;;;4.50;;
19163;SDS011;9714;51.208;4.242;2023-03-31T11:31:38;17.97;;;3.30;;
19163;SDS011;9714;51.208;4.242;2023-03-31T11:34:18;23.20;;;3.90;;
19163;SDS011;9714;51.208;4.242;2023-03-31T11:37:09;23.33;;;4.03;;
19163;SDS011;9714;51.208;4.242;2023-03-31T11:39:48;20.20;;;4.03;;
19163;SDS011;9714;51.208;4.242;2023-03-31T11:42:25;18.13;;;3.13;;
19163;SDS011;9714;51.208;4.242;2023-03-31T11:45:01;17.43;;;3.20;;
19163;SDS011;9714;51.208;4.242;2023-03-31T11:47:32;20.10;;;3.63;;
19163;SDS011;9714;51.208;4.242;2023-03-31T11:50:03;23.87;;;3.27;;
19163;SDS011;9714;51.208;4.242;2023-03-31T11:52:36;23.30;;;3.70;;
19163;SDS011;9714;51.208;4.242;2023-03-31T11:55:10;17.90;;;3.00;;
19163;SDS011;9714;51.208;4.242;2023-03-31T11:57:40;19.93;;;3.60;;
19163;SDS011;9714;51.208;4.242;2023-03-31T12:00:15;22.27;;;4.27;;
19163;SDS011;9714;51.208;4.242;2023-03-31T12:02:45;24.37;;;4.50;;
19163;SDS011;9714;51.208;4.242;2023-03-31T12:05:17;17.67;;;3.30;;
19163;SDS011;9714;51.208;4.242;2023-03-31T12:07:47;18.97;;;3.50;;
19163;SDS011;9714;51.208;4.242;2023-03-31T12:10:19;16.93;;;2.77;;
19163;SDS011;9714;51.208;4.242;2023-03-31T12:12:48;20.53;;;3.10;;
19163;SDS011;9714;51.208;4.242;2023-03-31T12:15:22;23.33;;;3.67;;
19163;SDS011;9714;51.208;4.242;2023-03-31T12:17:55;18.73;;;3.60;;
19163;SDS011;9714;51.208;4.242;2023-03-31T12:20:29;15.27;;;2.87;;
19163;SDS011;9714;51.208;4.242;2023-03-31T12:23:00;23.30;;;2.50;;
19163;SDS011;9714;51.208;4.242;2023-03-31T12:25:36;13.67;;;2.07;;
19163;SDS011;9714;51.208;4.242;2023-03-31T12:28:09;25.43;;;3.00;;
19163;SDS011;9714;51.208;4.242;2023-03-31T12:30:38;16.63;;;3.13;;
19163;SDS011;9714;51.208;4.242;2023-03-31T12:33:11;14.10;;;2.60;;
19163;SDS011;9714;51.208;4.242;2023-03-31T12:35:46;13.33;;;2.70;;
19163;SDS011;9714;51.208;4.242;2023-03-31T12:38:45;16.20;;;2.53;;
19163;SDS011;9714;51.208;4.242;2023-03-31T12:41:23;10.00;;;1.97;;
19163;SDS011;9714;51.208;4.242;2023-03-31T12:43:58;13.07;;;3.40;;
19163;SDS011;9714;51.208;4.242;2023-03-31T12:52:44;5.33;;;0.97;;
19163;SDS011;9714;51.208;4.242;2023-03-31T12:55:25;12.90;;;1.97;;
19163;SDS011;9714;51.208;4.242;2023-03-31T13:01:06;11.23;;;1.50;;
19163;SDS011;9714;51.208;4.242;2023-03-31T13:03:47;6.53;;;1.33;;
19163;SDS011;9714;51.208;4.242;2023-03-31T13:06:53;7.00;;;1.40;;
19163;SDS011;9714;51.208;4.242;2023-03-31T13:09:42;11.97;;;2.37;;
19163;SDS011;9714;51.208;4.242;2023-03-31T13:12:20;8.23;;;1.40;;
19163;SDS011;9714;51.208;4.242;2023-03-31T13:14:50;11.97;;;2.10;;
19163;SDS011;9714;51.208;4.242;2023-03-31T13:20:16;11.07;;;1.80;;
19163;SDS011;9714;51.208;4.242;2023-03-31T13:23:00;13.60;;;1.67;;
19163;SDS011;9714;51.208;4.242;2023-03-31T13:25:34;10.20;;;1.37;;
19163;SDS011;9714;51.208;4.242;2023-03-31T13:28:13;8.63;;;1.40;;
19163;SDS011;9714;51.208;4.242;2023-03-31T13:30:52;9.57;;;1.70;;
19163;SDS011;9714;51.208;4.242;2023-03-31T13:33:45;6.77;;;1.40;;
19163;SDS011;9714;51.208;4.242;2023-03-31T13:36:32;10.67;;;1.43;;
19163;SDS011;9714;51.208;4.242;2023-03-31T13:39:24;9.53;;;1.80;;
19163;SDS011;9714;51.208;4.242;2023-03-31T13:42:13;9.13;;;1.20;;
19163;SDS011;9714;51.208;4.242;2023-03-31T13:45:03;3.50;;;0.63;;
19163;SDS011;9714;51.208;4.242;2023-03-31T13:50:30;7.23;;;0.70;;
19163;SDS011;9714;51.208;4.242;2023-03-31T13:53:25;5.10;;;1.00;;
19163;SDS011;9714;51.208;4.242;2023-03-31T13:56:21;6.90;;;1.33;;
19163;SDS011;9714;51.208;4.242;2023-03-31T13:59:12;2.77;;;0.63;;
19163;SDS011;9714;51.208;4.242;2023-03-31T14:02:10;6.23;;;0.60;;
19163;SDS011;9714;51.208;4.242;2023-03-31T14:07:48;4.10;;;0.73;;
19163;SDS011;9714;51.208;4.242;2023-03-31T14:10:22;6.03;;;0.93;;
19163;SDS011;9714;51.208;4.242;2023-03-31T14:13:02;3.90;;;0.97;;
19163;SDS011;9714;51.208;4.242;2023-03-31T14:15:30;6.33;;;1.43;;
19163;SDS011;9714;51.208;4.242;2023-03-31T14:17:58;5.73;;;0.93;;
19163;SDS011;9714;51.208;4.242;2023-03-31T14:20:27;5.87;;;0.60;;
19163;SDS011;9714;51.208;4.242;2023-03-31T14:23:03;2.23;;;0.60;;
19163;SDS011;9714;51.208;4.242;2023-03-31T14:25:45;4.30;;;0.80;;
19163;SDS011;9714;51.208;4.242;2023-03-31T14:31:11;7.37;;;1.10;;
19163;SDS011;9714;51.208;4.242;2023-03-31T14:33:46;3.33;;;0.70;;
19163;SDS011;9714;51.208;4.242;2023-03-31T14:36:29;4.60;;;0.80;;
19163;SDS011;9714;51.208;4.242;2023-03-31T14:39:03;2.90;;;0.63;;
19163;SDS011;9714;51.208;4.242;2023-03-31T14:41:32;4.03;;;1.00;;
19163;SDS011;9714;51.208;4.242;2023-03-31T14:44:03;4.80;;;0.87;;
19163;SDS011;9714;51.208;4.242;2023-03-31T14:46:32;5.03;;;1.00;;
19163;SDS011;9714;51.208;4.242;2023-03-31T14:49:05;4.70;;;0.80;;
19163;SDS011;9714;51.208;4.242;2023-03-31T14:51:41;5.33;;;0.97;;
19163;SDS011;9714;51.208;4.242;2023-03-31T14:54:13;10.03;;;1.40;;
19163;SDS011;9714;51.208;4.242;2023-03-31T14:56:42;4.67;;;1.03;;
19163;SDS011;9714;51.208;4.242;2023-03-31T14:59:14;5.03;;;1.17;;
19163;SDS011;9714;51.208;4.242;2023-03-31T15:01:46;4.27;;;1.10;;
19163;SDS011;9714;51.208;4.242;2023-03-31T15:04:15;9.00;;;1.80;;
19163;SDS011;9714;51.208;4.242;2023-03-31T15:06:46;2.53;;;0.63;;
19163;SDS011;9714;51.208;4.242;2023-03-31T15:09:17;10.23;;;1.73;;
19163;SDS011;9714;51.208;4.242;2023-03-31T15:11:48;5.20;;;1.10;;
19163;SDS011;9714;51.208;4.242;2023-03-31T15:14:22;5.40;;;1.10;;
19163;SDS011;9714;51.208;4.242;2023-03-31T15:16:49;3.83;;;1.03;;
19163;SDS011;9714;51.208;4.242;2023-03-31T15:19:17;2.33;;;0.80;;
19163;SDS011;9714;51.208;4.242;2023-03-31T15:21:46;6.63;;;1.20;;
19163;SDS011;9714;51.208;4.242;2023-03-31T15:24:20;4.77;;;1.07;;
19163;SDS011;9714;51.208;4.242;2023-03-31T15:26:49;5.07;;;1.10;;
19163;SDS011;9714;51.208;4.242;2023-03-31T15:29:24;4.83;;;0.80;;
19163;SDS011;9714;51.208;4.242;2023-03-31T15:31:56;5.17;;;1.33;;
19163;SDS011;9714;51.208;4.242;2023-03-31T15:34:24;8.87;;;1.77;;
19163;SDS011;9714;51.208;4.242;2023-03-31T15:36:54;9.00;;;1.50;;
19163;SDS011;9714;51.208;4.242;2023-03-31T15:39:22;11.43;;;1.70;;
19163;SDS011;9714;51.208;4.242;2023-03-31T15:41:51;11.70;;;1.90;;
19163;SDS011;9714;51.208;4.242;2023-03-31T15:44:28;9.20;;;1.37;;
19163;SDS011;9714;51.208;4.242;2023-03-31T15:47:05;24.90;;;9.90;;
19163;SDS011;9714;51.208;4.242;2023-03-31T15:49:33;19.67;;;7.67;;
19163;SDS011;9714;51.208;4.242;2023-03-31T15:52:01;13.77;;;2.77;;
19163;SDS011;9714;51.208;4.242;2023-03-31T15:54:28;11.83;;;2.60;;
19163;SDS011;9714;51.208;4.242;2023-03-31T15:56:59;14.90;;;2.80;;
19163;SDS011;9714;51.208;4.242;2023-03-31T15:59:41;20.77;;;6.00;;